createdAt,value
2022-08-22T00:01:20.715Z,3.00
2022-08-22T00:03:11.175Z,2.60
2022-08-22T00:03:11.562Z,2.50
2022-08-22T00:04:05.130Z,3.10
2022-08-22T00:06:38.850Z,2.67
2022-08-22T00:09:29.430Z,3.10
2022-08-22T00:12:12.162Z,2.70
2022-08-22T00:14:44.834Z,2.63
2022-08-22T00:17:35.296Z,3.15
2022-08-22T00:20:10.273Z,2.40
2022-08-22T00:22:47.665Z,2.50
2022-08-22T00:25:39.240Z,2.60
2022-08-22T00:28:14.721Z,2.60
2022-08-22T00:30:50.848Z,2.70
2022-08-22T00:33:25.141Z,2.33
2022-08-22T00:36:03.968Z,2.47
2022-08-22T00:38:36.873Z,2.88
2022-08-22T00:41:10.145Z,3.00
2022-08-22T00:44:26.295Z,2.40
2022-08-22T00:47:12.207Z,3.53
2022-08-22T00:50:09.142Z,3.58
2022-08-22T00:53:09.645Z,3.17
2022-08-22T00:55:51.054Z,2.97
2022-08-22T00:58:58.156Z,3.20
2022-08-22T01:01:34.243Z,3.08
2022-08-22T01:04:22.300Z,3.28
2022-08-22T01:07:03.194Z,3.33
2022-08-22T01:09:44.517Z,3.20
2022-08-22T01:12:26.368Z,3.38
2022-08-22T01:15:00.180Z,3.50
2022-08-22T01:18:04.376Z,3.10
2022-08-22T01:21:01.835Z,3.23
2022-08-22T01:24:07.011Z,2.80
2022-08-22T01:27:18.213Z,3.70
2022-08-22T01:30:12.785Z,2.72
2022-08-22T01:33:25.032Z,2.80
2022-08-22T01:36:15.883Z,3.10
2022-08-22T01:39:06.473Z,3.25
2022-08-22T01:41:58.102Z,2.65
2022-08-22T01:44:50.831Z,3.00
2022-08-22T01:47:21.998Z,2.80
2022-08-22T01:49:55.521Z,2.70
2022-08-22T01:52:38.698Z,2.60
2022-08-22T01:55:12.946Z,4.03
2022-08-22T01:57:53.196Z,2.83
2022-08-22T02:00:35.134Z,3.38
2022-08-22T02:03:17.667Z,3.15
2022-08-22T02:05:53.418Z,3.40
2022-08-22T02:08:34.914Z,3.00
2022-08-22T02:11:07.040Z,2.90
2022-08-22T02:13:51.019Z,3.10
2022-08-22T02:16:27.380Z,2.53
2022-08-22T02:19:04.171Z,2.90
2022-08-22T02:21:43.977Z,3.53
2022-08-22T02:24:25.628Z,3.17
2022-08-22T02:27:06.095Z,3.20
2022-08-22T02:29:39.858Z,3.10
2022-08-22T02:32:16.098Z,3.00
2022-08-22T02:34:50.754Z,2.97
2022-08-22T02:37:22.900Z,3.40
2022-08-22T02:40:03.214Z,2.70
2022-08-22T02:42:37.950Z,2.88
2022-08-22T02:45:24.999Z,3.00
2022-08-22T02:47:59.734Z,2.70
2022-08-22T02:50:37.029Z,2.70
2022-08-22T02:53:12.732Z,2.55
2022-08-22T02:55:51.519Z,2.60
2022-08-22T02:58:29.246Z,2.70
2022-08-22T03:01:17.681Z,2.95
2022-08-22T03:03:48.719Z,2.60
2022-08-22T03:06:37.778Z,2.20
2022-08-22T03:09:21.531Z,2.23
2022-08-22T03:12:01.237Z,2.80
2022-08-22T03:14:35.542Z,2.73
2022-08-22T03:17:11.193Z,2.70
2022-08-22T03:19:54.798Z,2.33
2022-08-22T03:22:29.868Z,2.45
2022-08-22T03:25:09.437Z,2.22
2022-08-22T03:27:46.224Z,2.63
2022-08-22T03:30:21.161Z,2.50
2022-08-22T03:32:52.613Z,2.93
2022-08-22T03:35:33.214Z,2.65
2022-08-22T03:38:16.992Z,2.40
2022-08-22T03:41:03.957Z,2.60
2022-08-22T03:44:02.484Z,2.85
2022-08-22T03:46:59.094Z,2.50
2022-08-22T03:50:16.241Z,2.58
2022-08-22T03:53:19.970Z,2.58
2022-08-22T03:56:26.087Z,2.30
2022-08-22T03:59:33.965Z,2.60
2022-08-22T04:02:43.242Z,2.60
2022-08-22T04:05:47.912Z,2.35
2022-08-22T04:08:57.506Z,2.50
2022-08-22T04:12:03.883Z,2.58
2022-08-22T04:15:01.128Z,2.90
2022-08-22T04:18:00.058Z,2.40
2022-08-22T04:20:52.723Z,2.65
2022-08-22T04:23:44.387Z,2.80
2022-08-22T04:26:18.301Z,2.60
2022-08-22T04:28:50.139Z,2.60
2022-08-22T04:31:23.652Z,2.47
2022-08-22T04:33:58.311Z,3.10
2022-08-22T04:36:30.281Z,2.92
2022-08-22T04:39:03.704Z,2.70
2022-08-22T04:41:39.381Z,2.40
2022-08-22T04:44:13.552Z,2.47
2022-08-22T04:46:53.569Z,2.65
2022-08-22T04:49:28.730Z,3.17
2022-08-22T04:52:06.033Z,2.90
2022-08-22T04:54:44.378Z,2.45
2022-08-22T04:57:25.558Z,2.50
2022-08-22T04:59:59.121Z,2.60
2022-08-22T05:02:28.972Z,2.70
2022-08-22T05:05:04.870Z,3.08
2022-08-22T05:07:45.020Z,3.60
2022-08-22T05:10:18.514Z,2.95
2022-08-22T05:12:51.672Z,2.67
2022-08-22T05:15:23.280Z,2.58
2022-08-22T05:17:57.277Z,2.83
2022-08-22T05:20:29.553Z,2.80
2022-08-22T05:23:02.677Z,3.05
2022-08-22T05:25:36.650Z,2.53
2022-08-22T05:28:15.952Z,3.00
2022-08-22T05:30:46.699Z,2.67
2022-08-22T05:33:23.665Z,3.10
2022-08-22T05:35:58.084Z,2.80
2022-08-22T05:38:30.892Z,3.00
2022-08-22T05:41:03.893Z,2.90
2022-08-22T05:43:37.536Z,2.90
2022-08-22T05:46:09.836Z,2.83
2022-08-22T05:48:43.659Z,2.67
2022-08-22T05:51:18.960Z,2.90
2022-08-22T05:53:53.511Z,2.90
2022-08-22T05:56:28.711Z,2.80
2022-08-22T05:59:01.619Z,2.90
2022-08-22T06:01:35.522Z,3.17
2022-08-22T06:04:12.009Z,2.92
2022-08-22T06:06:44.000Z,2.90
2022-08-22T06:09:20.068Z,3.17
2022-08-22T06:11:53.897Z,3.20
2022-08-22T06:14:33.788Z,3.17
2022-08-22T06:17:11.244Z,3.03
2022-08-22T06:19:46.946Z,3.30
2022-08-22T06:22:18.939Z,2.80
2022-08-22T06:24:49.071Z,2.80
2022-08-22T06:27:22.942Z,3.20
2022-08-22T06:29:56.977Z,3.00
2022-08-22T06:32:44.282Z,2.90
2022-08-22T06:35:23.100Z,3.13
2022-08-22T06:37:53.204Z,3.10
2022-08-22T06:40:21.384Z,2.78
2022-08-22T06:42:51.984Z,3.20
2022-08-22T06:45:23.565Z,3.00
2022-08-22T06:47:56.318Z,3.57
2022-08-22T06:50:33.347Z,3.10
2022-08-22T06:53:07.172Z,3.03
2022-08-22T06:55:38.291Z,3.00
2022-08-22T06:58:08.431Z,3.10
2022-08-22T07:00:38.226Z,2.50
2022-08-22T07:03:11.899Z,3.22
2022-08-22T07:05:43.316Z,3.10
2022-08-22T07:08:13.616Z,3.00
2022-08-22T07:10:44.139Z,3.65
2022-08-22T07:13:15.924Z,2.77
2022-08-22T07:15:44.576Z,3.00
2022-08-22T07:18:20.086Z,2.73
2022-08-22T07:20:55.228Z,3.50
2022-08-22T07:23:32.552Z,3.17
2022-08-22T07:26:15.027Z,3.53
2022-08-22T07:28:50.800Z,3.20
2022-08-22T07:31:34.093Z,3.70
2022-08-22T07:34:17.745Z,3.40
2022-08-22T07:36:51.181Z,3.33
2022-08-22T07:39:26.489Z,3.30
2022-08-22T07:42:11.515Z,3.75
2022-08-22T07:44:54.069Z,3.50
2022-08-22T07:47:26.647Z,2.60
2022-08-22T07:49:58.612Z,2.85
2022-08-22T07:52:35.141Z,2.90
2022-08-22T07:55:10.223Z,3.20
2022-08-22T07:57:42.349Z,3.00
2022-08-22T08:00:16.020Z,3.60
2022-08-22T08:02:47.193Z,3.00
2022-08-22T08:05:15.973Z,3.00
2022-08-22T08:07:47.306Z,3.08
2022-08-22T08:10:20.717Z,2.80
2022-08-22T08:13:01.873Z,2.83
2022-08-22T08:15:32.848Z,3.00
2022-08-22T08:18:05.486Z,2.67
2022-08-22T08:20:36.337Z,2.80
2022-08-22T08:23:09.838Z,3.22
2022-08-22T08:26:02.024Z,3.08
2022-08-22T08:28:37.661Z,2.72
2022-08-22T08:31:21.117Z,3.25
2022-08-22T08:33:52.587Z,3.00
2022-08-22T08:36:32.612Z,3.03
2022-08-22T08:39:12.501Z,3.13
2022-08-22T08:42:30.036Z,3.20
2022-08-22T08:45:10.493Z,2.80
2022-08-22T08:48:05.822Z,2.83
2022-08-22T08:50:50.467Z,2.70
2022-08-22T08:53:58.422Z,3.10
2022-08-22T08:56:36.715Z,3.00
2022-08-22T08:59:13.530Z,2.75
2022-08-22T09:02:23.685Z,2.90
2022-08-22T09:05:17.505Z,3.60
2022-08-22T09:07:59.700Z,3.20
2022-08-22T09:10:43.536Z,2.77
2022-08-22T09:13:41.500Z,2.05
2022-08-22T09:16:37.553Z,2.80
2022-08-22T09:19:41.472Z,2.30
2022-08-22T09:22:25.274Z,2.70
2022-08-22T09:25:20.413Z,2.50
2022-08-22T09:28:00.868Z,3.00
2022-08-22T09:30:54.265Z,2.20
2022-08-22T09:33:31.041Z,2.40
2022-08-22T09:36:05.258Z,2.30
2022-08-22T09:38:47.918Z,2.60
2022-08-22T09:41:27.052Z,2.80
2022-08-22T09:44:07.434Z,2.42
2022-08-22T09:46:50.562Z,2.30
2022-08-22T09:49:27.789Z,2.60
2022-08-22T09:52:15.402Z,2.30
2022-08-22T09:55:03.085Z,2.50
2022-08-22T09:57:41.645Z,2.10
2022-08-22T10:00:24.668Z,2.60
2022-08-22T10:03:18.384Z,3.00
2022-08-22T10:05:48.945Z,2.95
2022-08-22T10:08:32.946Z,2.20
2022-08-22T10:11:24.053Z,2.47
2022-08-22T10:14:03.256Z,2.40
2022-08-22T10:16:56.800Z,2.85
2022-08-22T10:19:33.781Z,2.13
2022-08-22T10:22:30.908Z,2.30
2022-08-22T10:25:09.152Z,1.80
2022-08-22T10:28:14.210Z,2.00
2022-08-22T10:30:55.797Z,1.80
2022-08-22T10:33:30.307Z,2.25
2022-08-22T10:36:12.076Z,2.10
2022-08-22T10:38:46.795Z,2.13
2022-08-22T10:41:26.770Z,2.20
2022-08-22T10:44:04.313Z,2.20
2022-08-22T10:46:39.661Z,2.30
2022-08-22T10:49:17.957Z,2.10
2022-08-22T10:51:52.774Z,2.20
2022-08-22T10:54:42.967Z,2.88
2022-08-22T10:57:44.466Z,2.10
2022-08-22T11:00:35.177Z,2.17
2022-08-22T11:03:15.166Z,2.35
2022-08-22T11:05:52.453Z,1.90
2022-08-22T11:08:45.707Z,2.00
2022-08-22T11:11:25.237Z,1.80
2022-08-22T11:14:20.313Z,2.17
2022-08-22T11:16:57.957Z,2.20
2022-08-22T11:19:44.804Z,2.03
2022-08-22T11:22:28.390Z,2.22
2022-08-22T11:25:38.429Z,2.47
2022-08-22T11:28:31.609Z,2.00
2022-08-22T11:31:07.504Z,2.10
2022-08-22T11:33:47.292Z,2.22
2022-08-22T11:36:31.174Z,2.10
2022-08-22T11:39:10.012Z,1.90
2022-08-22T11:41:56.123Z,2.20
2022-08-22T11:44:31.170Z,2.13
2022-08-22T11:47:02.665Z,1.95
2022-08-22T11:49:51.157Z,1.90
2022-08-22T11:52:51.651Z,2.00
2022-08-22T11:55:34.703Z,2.57
2022-08-22T11:58:28.734Z,2.00
2022-08-22T12:01:00.708Z,1.80
2022-08-22T12:03:43.999Z,1.95
2022-08-22T12:06:41.667Z,1.90
2022-08-22T12:09:23.226Z,2.50
2022-08-22T12:12:11.634Z,2.00
2022-08-22T12:14:46.021Z,1.80
2022-08-22T12:17:50.799Z,1.73
2022-08-22T12:20:32.266Z,2.40
2022-08-22T12:23:20.791Z,2.28
2022-08-22T12:26:11.063Z,2.10
2022-08-22T12:28:47.126Z,2.35
2022-08-22T12:31:26.216Z,2.60
2022-08-22T12:34:06.547Z,2.47
2022-08-22T12:37:03.488Z,2.60
2022-08-22T12:39:56.844Z,2.17
2022-08-22T12:42:55.146Z,2.10
2022-08-22T12:45:52.217Z,2.20
2022-08-22T12:48:40.008Z,2.00
2022-08-22T12:51:29.938Z,1.92
2022-08-22T12:54:26.299Z,1.80
2022-08-22T12:57:04.377Z,1.90
2022-08-22T12:59:55.121Z,2.30
2022-08-22T13:02:29.053Z,2.00
2022-08-22T13:05:02.630Z,1.90
2022-08-22T13:07:33.548Z,1.80
2022-08-22T13:10:06.561Z,2.20
2022-08-22T13:12:44.338Z,2.58
2022-08-22T13:15:29.161Z,2.20
2022-08-22T13:18:13.223Z,2.25
2022-08-22T13:20:51.495Z,1.85
2022-08-22T13:23:24.939Z,2.20
2022-08-22T13:26:08.621Z,2.10
2022-08-22T13:28:45.491Z,2.20
2022-08-22T13:31:24.324Z,2.58
2022-08-22T13:33:54.744Z,2.30
2022-08-22T13:36:27.842Z,2.25
2022-08-22T13:39:04.121Z,2.10
2022-08-22T13:41:44.219Z,2.20
2022-08-22T13:44:18.720Z,2.70
2022-08-22T13:47:12.939Z,1.90
2022-08-22T13:49:40.562Z,2.20
2022-08-22T13:52:29.295Z,2.00
2022-08-22T13:55:03.421Z,2.00
2022-08-22T13:57:43.360Z,1.90
2022-08-22T14:01:06.922Z,1.92
2022-08-22T14:03:41.786Z,1.90
2022-08-22T14:06:37.568Z,2.00
2022-08-22T14:09:29.417Z,2.10
2022-08-22T14:12:11.948Z,1.50
2022-08-22T14:14:42.989Z,2.03
2022-08-22T14:17:18.052Z,1.90
2022-08-22T14:19:59.472Z,2.00
2022-08-22T14:22:34.995Z,1.60
2022-08-22T14:25:09.121Z,1.80
2022-08-22T14:27:43.823Z,1.80
2022-08-22T14:30:16.362Z,1.80
2022-08-22T14:32:49.889Z,2.20
2022-08-22T14:35:34.672Z,1.80
2022-08-22T14:38:30.631Z,1.80
2022-08-22T14:41:05.886Z,1.60
2022-08-22T14:43:54.469Z,2.07
2022-08-22T14:46:27.765Z,2.10
2022-08-22T14:49:34.066Z,1.80
2022-08-22T14:52:09.766Z,1.55
2022-08-22T14:54:38.828Z,1.70
2022-08-22T14:57:19.983Z,1.92
2022-08-22T14:59:52.309Z,1.90
2022-08-22T15:02:27.673Z,2.20
2022-08-22T15:04:57.134Z,1.98
2022-08-22T15:07:29.208Z,1.90
2022-08-22T15:10:03.078Z,2.20
2022-08-22T15:12:34.875Z,1.75
2022-08-22T15:15:06.025Z,1.70
2022-08-22T15:17:44.362Z,1.67
2022-08-22T15:20:28.593Z,2.03
2022-08-22T15:22:59.519Z,1.90
2022-08-22T15:25:32.174Z,2.40
2022-08-22T15:28:07.043Z,2.33
2022-08-22T15:30:44.891Z,2.20
2022-08-22T15:33:17.288Z,1.90
2022-08-22T15:35:48.433Z,1.80
2022-08-22T15:38:29.610Z,1.52
2022-08-22T15:41:18.694Z,1.75
2022-08-22T15:43:50.571Z,2.10
2022-08-22T15:46:32.288Z,1.80
2022-08-22T15:49:03.266Z,2.15
2022-08-22T15:51:40.093Z,2.00
2022-08-22T15:54:24.251Z,2.00
2022-08-22T15:57:16.062Z,2.00
2022-08-22T15:59:55.513Z,1.90
2022-08-22T16:02:35.053Z,1.98
2022-08-22T16:05:22.976Z,1.90
2022-08-22T16:08:02.697Z,1.80
2022-08-22T16:10:35.101Z,2.20
2022-08-22T16:13:35.360Z,2.00
2022-08-22T16:16:10.833Z,2.40
2022-08-22T16:19:17.396Z,2.05
2022-08-22T16:22:13.814Z,2.10
2022-08-22T16:25:05.482Z,2.10
2022-08-22T16:27:34.077Z,1.90
2022-08-22T16:30:15.147Z,2.40
2022-08-22T16:32:56.509Z,1.88
2022-08-22T16:36:01.755Z,1.90
2022-08-22T16:38:37.533Z,2.20
2022-08-22T16:41:06.201Z,1.75
2022-08-22T16:43:34.321Z,2.38
2022-08-22T16:46:02.654Z,2.15
2022-08-22T16:48:39.437Z,2.20
2022-08-22T16:51:13.880Z,1.90
2022-08-22T16:54:05.630Z,2.13
2022-08-22T16:56:49.190Z,2.10
2022-08-22T16:59:57.050Z,2.00
2022-08-22T17:03:02.785Z,1.98
2022-08-22T17:05:48.365Z,1.90
2022-08-22T17:08:41.924Z,1.90
2022-08-22T17:11:22.190Z,2.20
2022-08-22T17:14:09.066Z,1.83
2022-08-22T17:16:56.941Z,2.53
2022-08-22T17:19:44.052Z,2.00
2022-08-22T17:22:28.458Z,2.00
2022-08-22T17:25:14.672Z,1.80
2022-08-22T17:27:46.263Z,2.20
2022-08-22T17:30:20.725Z,1.80
2022-08-22T17:33:03.664Z,2.10
2022-08-22T17:35:46.548Z,2.10
2022-08-22T17:38:35.665Z,2.05
2022-08-22T17:41:12.964Z,2.10
2022-08-22T17:43:53.335Z,1.70
2022-08-22T17:46:33.169Z,2.35
2022-08-22T17:49:13.258Z,1.90
2022-08-22T17:51:49.961Z,2.00
2022-08-22T17:54:29.584Z,2.08
2022-08-22T17:57:05.758Z,1.90
2022-08-22T17:59:40.860Z,2.00
2022-08-22T18:02:16.238Z,2.50
2022-08-22T18:04:52.364Z,2.47
2022-08-22T18:07:33.457Z,2.42
2022-08-22T18:10:14.296Z,2.10
2022-08-22T18:12:48.892Z,2.58
2022-08-22T18:15:26.245Z,2.47
2022-08-22T18:17:58.992Z,2.13
2022-08-22T18:20:32.372Z,2.13
2022-08-22T18:23:08.778Z,2.30
2022-08-22T18:26:06.458Z,3.00
2022-08-22T18:28:40.808Z,2.20
2022-08-22T18:31:17.783Z,2.95
2022-08-22T18:33:52.077Z,2.30
2022-08-22T18:36:26.493Z,2.50
2022-08-22T18:39:03.033Z,2.70
2022-08-22T18:41:39.132Z,2.55
2022-08-22T18:44:11.971Z,2.53
2022-08-22T18:46:46.400Z,2.88
2022-08-22T18:49:43.724Z,2.60
2022-08-22T18:52:21.262Z,2.35
2022-08-22T18:55:27.145Z,3.40
2022-08-22T18:58:10.176Z,2.50
2022-08-22T19:01:00.872Z,2.90
2022-08-22T19:03:46.256Z,2.60
2022-08-22T19:06:37.606Z,2.60
2022-08-22T19:09:37.357Z,2.50
2022-08-22T19:12:18.560Z,2.40
2022-08-22T19:15:08.622Z,2.30
2022-08-22T19:18:11.113Z,2.80
2022-08-22T19:20:58.628Z,2.27
2022-08-22T19:23:43.909Z,2.70
2022-08-22T19:26:33.825Z,2.90
2022-08-22T19:29:10.128Z,2.50
2022-08-22T19:31:54.632Z,2.80
2022-08-22T19:34:41.591Z,2.63
2022-08-22T19:37:32.371Z,2.90
2022-08-22T19:40:07.665Z,2.63
2022-08-22T19:42:42.970Z,2.90
2022-08-22T19:45:22.154Z,3.00
2022-08-22T19:48:01.297Z,2.60
2022-08-22T19:50:34.115Z,2.95
2022-08-22T19:53:25.319Z,2.50
2022-08-22T19:56:13.480Z,2.92
2022-08-22T19:58:54.346Z,2.60
2022-08-22T20:01:37.265Z,2.60
2022-08-22T20:04:20.496Z,2.80
2022-08-22T20:06:59.114Z,2.80
2022-08-22T20:09:38.771Z,2.80
2022-08-22T20:12:15.787Z,2.75
2022-08-22T20:14:46.645Z,2.70
2022-08-22T20:17:36.365Z,2.50
2022-08-22T20:20:29.727Z,2.58
2022-08-22T20:23:04.364Z,2.60
2022-08-22T20:25:44.046Z,3.35
2022-08-22T20:28:40.938Z,2.95
2022-08-22T20:31:24.233Z,2.90
2022-08-22T20:33:59.577Z,2.72
2022-08-22T20:36:29.506Z,3.35
2022-08-22T20:39:01.330Z,2.70
2022-08-22T20:41:33.580Z,2.65
2022-08-22T20:44:09.048Z,3.25
2022-08-22T20:46:55.042Z,2.93
2022-08-22T20:49:28.318Z,3.13
2022-08-22T20:51:59.889Z,2.80
2022-08-22T20:54:31.078Z,2.83
2022-08-22T20:57:01.888Z,2.90
2022-08-22T20:59:35.865Z,3.10
2022-08-22T21:02:15.646Z,2.90
2022-08-22T21:04:52.811Z,2.92
2022-08-22T21:07:29.177Z,2.78
2022-08-22T21:10:22.323Z,2.95
2022-08-22T21:13:10.143Z,2.70
2022-08-22T21:15:44.077Z,2.90
2022-08-22T21:18:14.864Z,2.90
2022-08-22T21:20:42.905Z,2.80
2022-08-22T21:23:15.057Z,2.75
2022-08-22T21:25:56.666Z,2.70
2022-08-22T21:28:33.706Z,2.70
2022-08-22T21:31:11.913Z,3.43
2022-08-22T21:33:47.287Z,3.00
2022-08-22T21:36:17.749Z,2.65
2022-08-22T21:38:53.598Z,2.30
2022-08-22T21:41:27.053Z,2.83
2022-08-22T21:43:54.998Z,2.90
2022-08-22T21:46:28.618Z,3.10
2022-08-22T21:49:01.549Z,2.67
2022-08-22T21:51:39.589Z,2.70
2022-08-22T21:54:39.618Z,2.90
2022-08-22T21:57:21.771Z,2.50
2022-08-22T21:59:59.475Z,2.83
2022-08-22T22:02:36.532Z,2.60
2022-08-22T22:05:09.142Z,2.50
2022-08-22T22:07:39.244Z,2.95
2022-08-22T22:10:12.455Z,3.00
2022-08-22T22:12:41.691Z,2.70
2022-08-22T22:15:13.617Z,2.70
2022-08-22T22:17:41.638Z,3.20
2022-08-22T22:20:10.370Z,3.20
2022-08-22T22:22:46.064Z,2.22
2022-08-22T22:25:40.233Z,2.90
2022-08-22T22:28:09.835Z,3.30
2022-08-22T22:30:37.849Z,3.00
2022-08-22T22:33:06.354Z,2.83
2022-08-22T22:35:34.981Z,3.38
2022-08-22T22:38:02.976Z,3.20
2022-08-22T22:40:32.420Z,3.80
2022-08-22T22:43:00.442Z,3.30
2022-08-22T22:45:28.374Z,4.05
2022-08-22T22:47:56.710Z,3.15
2022-08-22T22:50:25.541Z,3.30
2022-08-22T22:52:54.160Z,3.50
2022-08-22T22:55:24.742Z,2.90
2022-08-22T22:57:58.794Z,3.30
2022-08-22T23:00:30.586Z,3.60
2022-08-22T23:02:59.461Z,3.17
2022-08-22T23:05:27.427Z,3.50
2022-08-22T23:07:55.438Z,3.60
2022-08-22T23:10:23.418Z,3.55
2022-08-22T23:12:51.388Z,3.10
2022-08-22T23:15:20.922Z,2.67
2022-08-22T23:17:48.854Z,3.25
2022-08-22T23:20:16.801Z,3.30
2022-08-22T23:22:45.264Z,3.00
2022-08-22T23:25:13.306Z,2.97
2022-08-22T23:27:41.345Z,3.45
2022-08-22T23:30:11.049Z,3.78
2022-08-22T23:32:40.524Z,3.45
2022-08-22T23:35:09.156Z,2.97
2022-08-22T23:37:37.083Z,3.13
2022-08-22T23:40:09.196Z,3.30
2022-08-22T23:42:37.387Z,3.00
2022-08-22T23:45:06.146Z,3.20
2022-08-22T23:47:34.040Z,3.70
2022-08-22T23:50:05.734Z,3.50
2022-08-22T23:52:34.357Z,3.00
2022-08-22T23:55:02.277Z,3.22
2022-08-22T23:57:30.374Z,3.80
2022-08-22T23:59:58.714Z,4.07
